Главная страница
METAR-TAF:

METAR-TAF

Аэропорты :

Кингстон, Ямайка

широта: 17-56N, долгота: 076-47W, высота над уровнем моря: 3 м

Текущие метеонаблюдения

Эта сводка был подготовлена 13 минут назад, в 14:00 UTC
Ветер 5 Узел от южный
Температура 29°C
Влажность 70%
Давление 1015 hPa
Видимость 10 км и более
небольшая облачность на высоте 2400 фута

METAR: MKJP 241400Z 17005KT 9999 FEW024 29/23 Q1015

Время: 09:13 (14:13 UTC)

Прогноз

Эта сводка был подготовлена 2 часа и 58 минут назад, в 11:15 UTC
Прогноз действительный с 24-го 12 UTC до 25-го 12 UTC
Ветер 5 Узел от северный
Видимость 10 км и более
небольшая облачность на высоте 2200 фута
изменения
С 24-го 14 UTC до 24-го 16 UTC
Ветер 18 Узел от юго-восточный
небольшая облачность на высоте 2200 фута, Кучево-дождевые.
изменения
С 25-го 02 UTC до 25-го 04 UTC
Ветер 5 Узел от северный
небольшая облачность на высоте 2400 фута

TAF: MKJP 241115Z 2412/2512 36005KT 9999 FEW022 BECMG 2414/2416 14018KT FEW022CB BECMG 2502/2504 36005KT FEW024

Метеонаблюдения и прогнозы для более 4000 аэропортов (сводки METAR и TAF).

Имеющиеся станции представлены на карте желтыми и красными точками.

Чтобы увидеть название станции, наведите на нее мышь.

Затем щелкните, чтобы увидеть метеонаблюдения и метеопрогнозы.

Управление картой: чтобы увеличить масштаб, щелкните зеленые кнопки с черным крестиком; чтобы уменьшить масштаб, щелкните зеленую кнопку с тире; для просмотра соседних карт щелкайте зеленые стрелки.


METAR-TAF: